메인 페이지
METAR-TAF:

METAR-TAF

공항 :

비샤카파트남, 인도

위도: 17-43-16N, 경도: 83-13-28E, 고도: 6m

현재 날씨관측

예보는 25분 전, 20:30시(UTC)에 발표되었습니다.
여러 방향의 바람 2kt
온도 32°C
습도 46%
기압 1014 hPa
시정: 4500m
박무

METAR: VOVZ 302030Z VRB02KT 4500 BR NSC 32/19 Q1014 NOSIG

시각: 02:25 (20:55 UTC)

예보

예보는 6 시간 55분 전, 14:00시(UTC)에 발표되었습니다.
예보 대상 시간: 30일 15시부터 30일 24시까지 (UTC)
여러 방향의 바람 2kt
시정: 5000m
박무
전환 중
30일 15시부터 30일 19시까지 (UTC)
시정: 4000m
박무

TAF: VOVZ 301400Z 3015/3024 VRB02KT 5000 BR NSC BECMG 3015/3019 4000 BR

4,000개 이상의 공항 관측 자료 및 예보 (METAR 및 TAF 보고).

지도상에서 검색 가능한 기상관측소가 노란 점과 빨간 점으로 표시되어 있습니다.

기상관측소 명을 보려면 표시 위로 마우스를 이동하세요.

날씨 관측과 예보를 보려면 클릭하세요.

지도 변경 : 확대하려면 엑스 표시가 있는 녹색 버튼, 축소하려면 빼기 표시가 있는 녹색 버튼, 다음 페이지의 지도를 보려면 녹색 화살표를 클릭하세요.


METAR-TAF: